createdAt,value
2018-10-02T00:01:56.332Z,5.63
2018-10-02T00:04:26.695Z,5.61
2018-10-02T00:06:57.398Z,5.74
2018-10-02T00:09:28.024Z,5.64
2018-10-02T00:12:03.531Z,5.49
2018-10-02T00:14:34.071Z,5.43
2018-10-02T00:17:04.645Z,5.37
2018-10-02T00:19:35.476Z,5.41
2018-10-02T00:22:06.016Z,5.50
2018-10-02T00:24:36.522Z,5.40
2018-10-02T00:27:06.860Z,5.38
2018-10-02T00:29:37.268Z,5.40
2018-10-02T00:32:07.827Z,5.56
2018-10-02T00:34:38.286Z,5.47
2018-10-02T00:37:08.798Z,5.52
2018-10-02T00:39:39.114Z,5.52
2018-10-02T00:42:09.865Z,5.50
2018-10-02T00:44:40.407Z,5.57
2018-10-02T00:47:11.149Z,5.52
2018-10-02T00:49:41.693Z,5.57
2018-10-02T00:52:12.251Z,5.59
2018-10-02T00:54:43.927Z,5.46
2018-10-02T00:57:14.167Z,5.55
2018-10-02T00:59:44.742Z,5.52
2018-10-02T01:02:15.048Z,5.59
2018-10-02T01:04:45.548Z,5.58
2018-10-02T01:07:16.159Z,5.52
2018-10-02T01:09:46.606Z,5.49
2018-10-02T01:12:16.982Z,5.58
2018-10-02T01:14:47.420Z,5.53
2018-10-02T01:17:17.757Z,5.48
2018-10-02T01:19:48.198Z,5.40
2018-10-02T01:22:18.491Z,5.34
2018-10-02T01:24:48.981Z,5.33
2018-10-02T01:27:19.336Z,5.31
2018-10-02T01:29:51.468Z,5.27
2018-10-02T01:32:21.727Z,5.31
2018-10-02T01:34:52.124Z,5.35
2018-10-02T01:37:22.420Z,5.29
2018-10-02T01:39:52.888Z,5.22
2018-10-02T01:42:23.277Z,5.20
2018-10-02T01:44:53.513Z,5.26
2018-10-02T01:47:23.705Z,5.19
2018-10-02T01:49:54.308Z,5.22
2018-10-02T01:52:24.660Z,5.33
2018-10-02T01:54:55.308Z,5.38
2018-10-02T01:57:25.644Z,5.48
2018-10-02T01:59:56.101Z,5.41
2018-10-02T02:02:26.487Z,5.39
2018-10-02T02:04:56.744Z,5.19
2018-10-02T02:07:27.255Z,5.21
2018-10-02T02:09:57.726Z,5.15
2018-10-02T02:12:28.035Z,5.15
2018-10-02T02:14:58.368Z,5.13
2018-10-02T02:17:28.798Z,5.12
2018-10-02T02:19:59.364Z,5.06
2018-10-02T02:22:29.900Z,5.01
2018-10-02T02:25:00.311Z,5.01
2018-10-02T02:27:30.684Z,5.00
2018-10-02T02:30:01.160Z,4.94
2018-10-02T02:32:31.597Z,4.94
2018-10-02T02:35:01.965Z,4.91
2018-10-02T02:37:32.321Z,5.02
2018-10-02T02:40:02.972Z,5.07
2018-10-02T02:42:33.395Z,5.19
2018-10-02T02:45:04.015Z,5.19
2018-10-02T02:48:37.346Z,5.05
2018-10-02T02:51:12.855Z,5.03
2018-10-02T02:53:43.157Z,4.82
2018-10-02T02:56:13.436Z,4.88
2018-10-02T02:58:43.819Z,4.91
2018-10-02T03:01:14.329Z,4.81
2018-10-02T03:03:44.592Z,4.75
2018-10-02T03:06:14.932Z,4.78
2018-10-02T03:08:45.303Z,4.81
2018-10-02T03:11:15.882Z,4.68
2018-10-02T03:13:46.307Z,4.80
2018-10-02T03:16:16.574Z,4.87
2018-10-02T03:18:46.969Z,4.85
2018-10-02T03:21:17.547Z,4.87
2018-10-02T03:23:47.931Z,4.93
2018-10-02T03:26:18.207Z,4.91
2018-10-02T03:28:48.358Z,4.98
2018-10-02T03:31:18.856Z,4.85
2018-10-02T03:33:49.154Z,4.92
2018-10-02T03:36:19.383Z,4.89
2018-10-02T03:38:49.710Z,5.00
2018-10-02T03:41:20.312Z,5.11
2018-10-02T03:43:50.539Z,4.93
2018-10-02T03:46:20.915Z,5.01
2018-10-02T03:48:51.352Z,4.99
2018-10-02T03:51:21.668Z,5.02
2018-10-02T03:53:52.071Z,5.08
2018-10-02T03:56:22.322Z,5.01
2018-10-02T03:58:53.249Z,5.00
2018-10-02T04:01:23.678Z,5.04
2018-10-02T04:03:54.125Z,5.11
2018-10-02T04:06:25.160Z,5.23
2018-10-02T04:08:55.512Z,5.25
2018-10-02T04:11:25.943Z,5.29
2018-10-02T04:13:56.210Z,5.37
2018-10-02T04:16:26.691Z,5.24
2018-10-02T04:18:57.122Z,5.22
2018-10-02T04:21:34.784Z,5.33
2018-10-02T04:24:06.533Z,5.38
2018-10-02T04:26:38.286Z,5.50
2018-10-02T04:29:08.759Z,5.53
2018-10-02T04:31:39.284Z,5.54
2018-10-02T04:34:09.624Z,5.56
2018-10-02T04:36:39.974Z,5.63
2018-10-02T04:39:10.775Z,5.66
2018-10-02T04:41:41.336Z,5.53
2018-10-02T04:44:11.482Z,5.59
2018-10-02T04:46:42.423Z,5.81
2018-10-02T04:49:12.803Z,5.85
2018-10-02T04:51:43.176Z,5.71
2018-10-02T04:54:13.605Z,5.77
2018-10-02T04:56:43.916Z,5.83
2018-10-02T04:59:14.230Z,5.87
2018-10-02T05:01:44.583Z,5.96
2018-10-02T05:04:15.004Z,5.98
2018-10-02T05:06:45.215Z,6.14
2018-10-02T05:09:15.633Z,6.15
2018-10-02T05:11:46.133Z,6.16
2018-10-02T05:14:16.487Z,6.16
2018-10-02T05:16:46.636Z,6.07
2018-10-02T05:19:17.042Z,6.20
2018-10-02T05:21:47.511Z,6.24
2018-10-02T05:24:18.028Z,6.30
2018-10-02T05:26:48.421Z,6.32
2018-10-02T05:29:20.426Z,6.29
2018-10-02T05:31:50.860Z,6.40
2018-10-02T05:34:21.155Z,6.41
2018-10-02T05:36:51.534Z,6.49
2018-10-02T05:39:21.863Z,6.44
2018-10-02T05:41:52.196Z,6.39
2018-10-02T05:44:22.488Z,6.52
2018-10-02T05:46:52.856Z,6.41
2018-10-02T05:49:23.115Z,6.55
2018-10-02T05:51:53.448Z,6.68
2018-10-02T05:54:23.807Z,6.69
2018-10-02T05:56:54.188Z,6.77
2018-10-02T05:59:24.423Z,6.68
2018-10-02T06:01:55.371Z,6.52
2018-10-02T06:04:45.484Z,6.58
2018-10-02T06:07:15.739Z,6.74
2018-10-02T06:09:46.137Z,6.74
2018-10-02T06:12:16.595Z,6.81
2018-10-02T06:14:46.907Z,6.77
2018-10-02T06:17:17.725Z,6.89
2018-10-02T06:19:48.859Z,6.97
2018-10-02T06:22:19.520Z,6.95
2018-10-02T06:24:50.566Z,7.12
2018-10-02T06:27:21.077Z,7.20
2018-10-02T06:29:51.531Z,7.19
2018-10-02T06:32:21.759Z,7.19
2018-10-02T06:34:52.268Z,7.23
2018-10-02T06:37:22.928Z,7.25
2018-10-02T06:39:53.372Z,7.26
2018-10-02T06:42:23.962Z,7.17
2018-10-02T06:44:54.432Z,7.32
2018-10-02T06:47:24.670Z,7.37
2018-10-02T06:49:54.963Z,7.40
2018-10-02T06:52:25.541Z,7.19
2018-10-02T06:54:56.014Z,7.19
2018-10-02T06:57:26.631Z,7.24
2018-10-02T06:59:57.203Z,7.21
2018-10-02T07:02:27.495Z,7.34
2018-10-02T07:04:57.840Z,7.35
2018-10-02T07:07:28.491Z,7.38
2018-10-02T07:09:58.827Z,7.34
2018-10-02T07:12:29.649Z,7.36
2018-10-02T07:15:00.068Z,7.46
2018-10-02T07:17:30.898Z,7.41
2018-10-02T07:20:01.172Z,7.40
2018-10-02T07:22:31.524Z,7.45
2018-10-02T07:25:01.913Z,7.38
2018-10-02T07:27:32.542Z,7.34
2018-10-02T07:30:03.028Z,7.41
2018-10-02T07:32:33.381Z,7.55
2018-10-02T07:35:03.793Z,7.57
2018-10-02T07:37:34.300Z,7.59
2018-10-02T07:40:04.588Z,7.70
2018-10-02T07:42:35.140Z,7.66
2018-10-02T07:45:06.200Z,7.76
2018-10-02T07:47:36.804Z,7.75
2018-10-02T07:50:07.334Z,7.73
2018-10-02T07:52:37.886Z,7.71
2018-10-02T07:55:08.392Z,7.69
2018-10-02T07:57:38.941Z,7.70
2018-10-02T08:00:09.686Z,7.72
2018-10-02T08:02:40.201Z,7.75
2018-10-02T08:05:10.835Z,7.84
2018-10-02T08:07:41.229Z,7.85
2018-10-02T08:10:11.596Z,7.90
2018-10-02T08:12:42.208Z,7.91
2018-10-02T08:15:12.653Z,7.92
2018-10-02T08:17:43.234Z,8.08
2018-10-02T08:20:13.571Z,8.00
2018-10-02T08:22:44.118Z,8.18
2018-10-02T08:25:14.365Z,8.33
2018-10-02T08:27:44.864Z,8.37
2018-10-02T08:30:15.176Z,8.57
2018-10-02T08:32:45.881Z,8.44
2018-10-02T08:35:16.079Z,8.58
2018-10-02T08:37:46.479Z,8.61
2018-10-02T08:40:16.897Z,8.50
2018-10-02T08:42:47.273Z,8.60
2018-10-02T08:45:17.764Z,8.68
2018-10-02T08:47:48.178Z,8.71
2018-10-02T08:50:18.447Z,8.63
2018-10-02T08:52:48.956Z,8.57
2018-10-02T08:55:19.272Z,8.55
2018-10-02T08:57:49.536Z,8.45
2018-10-02T09:00:20.197Z,8.51
2018-10-02T09:02:50.612Z,8.55
2018-10-02T09:05:21.200Z,8.60
2018-10-02T09:07:51.700Z,8.58
2018-10-02T09:10:22.271Z,8.48
2018-10-02T09:12:52.698Z,8.32
2018-10-02T09:15:23.120Z,8.34
2018-10-02T09:17:53.368Z,8.39
2018-10-02T09:20:23.976Z,8.39
2018-10-02T09:22:54.249Z,8.42
2018-10-02T09:25:24.611Z,8.47
2018-10-02T09:27:55.116Z,8.51
2018-10-02T09:31:32.587Z,8.56
2018-10-02T09:34:07.961Z,8.36
2018-10-02T09:36:43.398Z,8.33
2018-10-02T09:39:18.845Z,8.34
2018-10-02T09:42:54.978Z,8.35
2018-10-02T09:45:25.553Z,8.36
2018-10-02T09:47:56.101Z,8.38
2018-10-02T09:50:26.438Z,8.42
2018-10-02T09:52:57.021Z,8.39
2018-10-02T09:55:27.425Z,8.43
2018-10-02T09:57:57.977Z,8.35
2018-10-02T10:00:33.201Z,8.45
2018-10-02T10:03:03.467Z,8.44
2018-10-02T10:05:33.928Z,8.49
2018-10-02T10:08:04.376Z,8.46
2018-10-02T10:10:35.063Z,8.44
2018-10-02T10:13:05.389Z,8.48
2018-10-02T10:15:35.757Z,8.56
2018-10-02T10:18:06.160Z,8.60
2018-10-02T10:20:36.615Z,8.58
2018-10-02T10:23:07.108Z,8.62
2018-10-02T10:25:37.571Z,8.58
2018-10-02T10:28:08.116Z,8.67
2018-10-02T10:30:38.591Z,8.67
2018-10-02T10:33:08.427Z,8.68
2018-10-02T10:35:38.895Z,8.64
2018-10-02T10:38:09.378Z,8.64
2018-10-02T10:40:39.851Z,8.67
2018-10-02T10:43:10.232Z,8.69
2018-10-02T10:45:40.698Z,8.77
2018-10-02T10:48:11.001Z,8.90
2018-10-02T10:50:41.872Z,8.87
2018-10-02T10:53:12.059Z,8.93
2018-10-02T10:55:46.340Z,8.86
2018-10-02T10:58:16.585Z,8.83
2018-10-02T11:00:47.270Z,8.79
2018-10-02T11:03:17.563Z,8.84
2018-10-02T11:05:48.022Z,8.90
2018-10-02T11:08:18.339Z,8.85
2018-10-02T11:10:48.700Z,8.80
2018-10-02T11:13:18.969Z,8.92
2018-10-02T11:15:49.429Z,8.96
2018-10-02T11:18:19.856Z,8.77
2018-10-02T11:20:52.458Z,8.83
2018-10-02T11:23:22.777Z,8.95
2018-10-02T11:25:53.355Z,9.06
2018-10-02T11:28:23.953Z,8.94
2018-10-02T11:30:54.511Z,9.03
2018-10-02T11:33:24.882Z,8.92
2018-10-02T11:35:55.229Z,8.92
2018-10-02T11:38:25.678Z,8.91
2018-10-02T11:40:56.147Z,8.97
2018-10-02T11:43:26.790Z,8.92
2018-10-02T11:45:57.401Z,8.80
2018-10-02T11:48:27.902Z,8.93
2018-10-02T11:50:58.395Z,8.91
2018-10-02T11:53:28.727Z,8.90
2018-10-02T11:55:59.307Z,8.93
2018-10-02T11:58:29.803Z,8.97
2018-10-02T12:01:00.275Z,9.02
2018-10-02T12:03:30.825Z,9.09
2018-10-02T12:06:01.140Z,9.01
2018-10-02T12:08:31.438Z,8.99
2018-10-02T12:11:01.913Z,8.96
2018-10-02T12:13:32.492Z,9.03
2018-10-02T12:16:02.980Z,9.03
2018-10-02T12:18:33.388Z,9.08
2018-10-02T12:21:03.899Z,9.05
2018-10-02T12:23:34.278Z,9.15
2018-10-02T12:26:04.835Z,9.10
2018-10-02T12:28:35.383Z,9.13
2018-10-02T12:31:06.001Z,9.14
2018-10-02T12:33:36.344Z,9.15
2018-10-02T12:36:07.488Z,9.21
2018-10-02T12:38:37.870Z,9.18
2018-10-02T12:41:08.412Z,9.18
2018-10-02T12:43:38.784Z,9.07
2018-10-02T12:46:09.516Z,9.14
2018-10-02T12:48:39.946Z,9.14
2018-10-02T12:51:10.387Z,9.16
2018-10-02T12:53:40.927Z,9.21
2018-10-02T12:56:11.255Z,9.12
2018-10-02T12:58:41.761Z,9.14
2018-10-02T13:01:12.262Z,9.23
2018-10-02T13:03:42.688Z,9.21
2018-10-02T13:06:12.983Z,9.17
2018-10-02T13:08:43.315Z,9.13
2018-10-02T13:11:13.671Z,9.33
2018-10-02T13:13:44.080Z,9.21
2018-10-02T13:16:14.315Z,9.25
2018-10-02T13:18:44.708Z,9.34
2018-10-02T13:21:15.164Z,9.33
2018-10-02T13:23:45.476Z,9.37
2018-10-02T13:26:15.815Z,9.37
2018-10-02T13:28:46.105Z,9.39
2018-10-02T13:31:17.100Z,9.42
2018-10-02T13:33:47.502Z,9.42
2018-10-02T13:36:18.095Z,9.45
2018-10-02T13:38:48.689Z,9.48
2018-10-02T13:41:19.167Z,9.55
2018-10-02T13:43:49.675Z,9.57
2018-10-02T13:46:20.120Z,9.63
2018-10-02T13:48:50.404Z,9.59
2018-10-02T13:51:20.855Z,9.61
2018-10-02T13:53:51.274Z,9.73
2018-10-02T13:56:21.720Z,9.65
2018-10-02T13:58:52.219Z,9.77
2018-10-02T14:01:22.539Z,9.81
2018-10-02T14:03:53.399Z,9.83
2018-10-02T14:06:23.779Z,9.84
2018-10-02T14:08:54.334Z,9.77
2018-10-02T14:11:24.920Z,9.80
2018-10-02T14:13:55.436Z,9.83
2018-10-02T14:16:25.795Z,9.87
2018-10-02T14:18:56.153Z,9.89
2018-10-02T14:21:26.656Z,9.95
2018-10-02T14:23:57.235Z,9.83
2018-10-02T14:26:27.603Z,9.83
2018-10-02T14:28:58.107Z,9.97
2018-10-02T14:31:28.436Z,9.99
2018-10-02T14:33:58.635Z,10.02
2018-10-02T14:36:29.241Z,10.01
2018-10-02T14:38:59.632Z,10.08
2018-10-02T14:41:29.863Z,10.02
2018-10-02T14:44:00.255Z,10.13
2018-10-02T14:46:30.759Z,10.13
2018-10-02T14:49:01.161Z,10.22
2018-10-02T14:51:37.607Z,10.23
2018-10-02T14:54:08.060Z,10.29
2018-10-02T14:56:38.415Z,10.24
2018-10-02T14:59:08.957Z,10.26
2018-10-02T15:01:39.357Z,10.37
2018-10-02T15:04:10.152Z,10.40
2018-10-02T15:06:40.648Z,10.38
2018-10-02T15:09:11.160Z,10.41
2018-10-02T15:11:41.584Z,10.42
2018-10-02T15:14:11.972Z,10.46
2018-10-02T15:16:42.413Z,10.38
2018-10-02T15:19:12.736Z,10.50
2018-10-02T15:21:43.204Z,10.53
2018-10-02T15:24:13.728Z,10.52
2018-10-02T15:26:44.107Z,10.55
2018-10-02T15:29:14.375Z,10.53
2018-10-02T15:32:10.422Z,10.63
2018-10-02T15:34:40.911Z,10.57
2018-10-02T15:37:11.343Z,10.57
2018-10-02T15:39:41.688Z,10.64
2018-10-02T15:42:12.149Z,10.68
2018-10-02T15:44:42.515Z,10.72
2018-10-02T15:47:12.949Z,10.72
2018-10-02T15:49:43.419Z,10.79
2018-10-02T15:52:14.290Z,10.80
2018-10-02T15:54:44.564Z,10.83
2018-10-02T15:57:14.908Z,10.90
2018-10-02T15:59:45.336Z,10.82
2018-10-02T16:02:15.842Z,10.87
2018-10-02T16:04:46.103Z,10.90
2018-10-02T16:07:16.333Z,10.92
2018-10-02T16:09:46.750Z,10.95
2018-10-02T16:12:16.993Z,10.99
2018-10-02T16:14:47.403Z,10.99
2018-10-02T16:17:17.781Z,10.91
2018-10-02T16:19:48.284Z,10.98
2018-10-02T16:22:18.680Z,11.03
2018-10-02T16:24:48.995Z,10.93
2018-10-02T16:27:19.477Z,10.99
2018-10-02T16:29:49.983Z,11.05
2018-10-02T16:32:20.395Z,11.07
2018-10-02T16:34:50.768Z,11.11
2018-10-02T16:37:21.030Z,11.13
2018-10-02T16:39:51.379Z,11.16
2018-10-02T16:42:21.937Z,11.17
2018-10-02T16:44:52.124Z,11.16
2018-10-02T16:47:22.428Z,11.25
2018-10-02T16:49:52.804Z,11.19
2018-10-02T16:52:23.305Z,11.21
2018-10-02T16:54:53.709Z,11.16
2018-10-02T16:57:24.260Z,11.14
2018-10-02T16:59:54.660Z,11.18
2018-10-02T17:02:25.619Z,11.22
2018-10-02T17:04:56.036Z,11.29
2018-10-02T17:07:26.632Z,11.31
2018-10-02T17:09:57.207Z,11.31
2018-10-02T17:12:27.575Z,11.41
2018-10-02T17:14:57.972Z,11.49
2018-10-02T17:17:28.409Z,11.56
2018-10-02T17:19:58.709Z,11.67
2018-10-02T17:22:29.136Z,11.58
2018-10-02T17:24:59.356Z,11.62
2018-10-02T17:27:29.932Z,11.59
2018-10-02T17:30:01.111Z,11.60
2018-10-02T17:32:31.481Z,11.58
2018-10-02T17:35:01.917Z,11.71
2018-10-02T17:37:32.375Z,11.59
2018-10-02T17:40:02.698Z,11.59
2018-10-02T17:42:33.278Z,11.53
2018-10-02T17:45:03.740Z,11.59
2018-10-02T17:47:33.981Z,11.60
2018-10-02T17:50:04.322Z,11.62
2018-10-02T17:52:34.785Z,11.60
2018-10-02T17:55:05.101Z,11.47
2018-10-02T17:57:35.533Z,11.56
2018-10-02T18:00:06.917Z,11.56
2018-10-02T18:02:37.515Z,11.52
2018-10-02T18:05:07.899Z,11.51
2018-10-02T18:07:38.405Z,11.53
2018-10-02T18:10:08.981Z,11.63
2018-10-02T18:12:39.375Z,11.59
2018-10-02T18:15:09.823Z,11.59
2018-10-02T18:17:40.395Z,11.58
2018-10-02T18:20:10.784Z,11.55
2018-10-02T18:22:41.159Z,11.50
2018-10-02T18:25:11.548Z,11.61
2018-10-02T18:27:41.993Z,11.53
2018-10-02T18:30:12.456Z,11.50
2018-10-02T18:32:42.888Z,11.42
2018-10-02T18:35:13.445Z,11.49
2018-10-02T18:37:43.887Z,11.44
2018-10-02T18:40:14.439Z,11.42
2018-10-02T18:42:44.913Z,11.45
2018-10-02T18:45:15.280Z,11.36
2018-10-02T18:47:45.672Z,11.37
2018-10-02T18:50:16.183Z,11.32
2018-10-02T18:52:46.653Z,11.40
2018-10-02T18:55:17.119Z,11.35
2018-10-02T18:57:47.612Z,11.36
2018-10-02T19:00:18.073Z,11.44
2018-10-02T19:02:48.457Z,11.47
2018-10-02T19:05:18.977Z,11.45
2018-10-02T19:07:50.307Z,11.46
2018-10-02T19:10:20.732Z,11.53
2018-10-02T19:12:51.072Z,11.64
2018-10-02T19:15:21.369Z,11.58
2018-10-02T19:17:51.745Z,11.57
2018-10-02T19:20:27.397Z,11.52
2018-10-02T19:22:57.819Z,11.56
2018-10-02T19:25:33.084Z,11.43
2018-10-02T19:28:03.525Z,11.45
2018-10-02T19:30:39.195Z,11.45
2018-10-02T19:33:09.679Z,11.51
2018-10-02T19:35:40.105Z,11.43
2018-10-02T19:38:15.640Z,11.45
2018-10-02T19:40:46.087Z,11.44
2018-10-02T19:43:16.692Z,11.36
2018-10-02T19:45:51.868Z,11.43
2018-10-02T19:48:22.143Z,11.34
2018-10-02T19:50:52.608Z,11.34
2018-10-02T19:53:23.104Z,11.35
2018-10-02T19:55:54.068Z,11.43
2018-10-02T19:58:24.484Z,11.39
2018-10-02T20:00:54.972Z,11.37
2018-10-02T20:03:25.219Z,11.38
2018-10-02T20:05:55.872Z,11.41
2018-10-02T20:08:26.311Z,11.38
2018-10-02T20:10:56.704Z,11.42
2018-10-02T20:13:27.220Z,11.43
2018-10-02T20:15:58.132Z,11.44
2018-10-02T20:18:28.473Z,11.47
2018-10-02T20:20:58.736Z,11.59
2018-10-02T20:23:29.294Z,11.50
2018-10-02T20:25:59.891Z,11.64
2018-10-02T20:28:30.772Z,11.69
2018-10-02T20:31:01.296Z,11.62
2018-10-02T20:33:31.532Z,11.61
2018-10-02T20:36:01.907Z,11.68
2018-10-02T20:38:32.241Z,11.66
2018-10-02T20:41:02.774Z,11.60
2018-10-02T20:43:33.132Z,11.57
2018-10-02T20:46:03.634Z,11.51
2018-10-02T20:48:34.024Z,11.56
2018-10-02T20:51:04.291Z,11.48
2018-10-02T20:53:34.706Z,11.48
2018-10-02T20:56:05.165Z,11.52
2018-10-02T20:58:35.737Z,11.54
2018-10-02T21:01:06.235Z,11.57
2018-10-02T21:03:36.472Z,11.44
2018-10-02T21:06:06.905Z,11.34
2018-10-02T21:08:37.356Z,11.26
2018-10-02T21:11:07.944Z,11.31
2018-10-02T21:13:38.357Z,11.25
2018-10-02T21:16:08.917Z,11.08
2018-10-02T21:18:39.289Z,11.15
2018-10-02T21:21:09.776Z,11.01
2018-10-02T21:23:40.278Z,11.09
2018-10-02T21:26:10.743Z,10.95
2018-10-02T21:28:41.169Z,10.93
2018-10-02T21:31:11.684Z,10.85
2018-10-02T21:33:42.085Z,10.82
2018-10-02T21:36:13.247Z,10.87
2018-10-02T21:38:43.651Z,10.81
2018-10-02T21:41:14.148Z,10.77
2018-10-02T21:43:45.041Z,10.68
2018-10-02T21:46:15.407Z,10.73
2018-10-02T21:48:45.979Z,10.81
2018-10-02T21:51:16.411Z,10.76
2018-10-02T21:53:46.812Z,10.77
2018-10-02T21:56:17.420Z,10.78
2018-10-02T21:58:47.733Z,10.90
2018-10-02T22:01:18.324Z,10.85
2018-10-02T22:03:48.715Z,10.87
2018-10-02T22:06:19.064Z,10.99
2018-10-02T22:08:49.431Z,10.93
2018-10-02T22:11:20.001Z,10.98
2018-10-02T22:13:50.417Z,11.05
2018-10-02T22:16:26.315Z,11.02
2018-10-02T22:18:56.663Z,10.95
2018-10-02T22:21:27.255Z,10.98
2018-10-02T22:23:57.641Z,11.05
2018-10-02T22:26:28.040Z,11.02
2018-10-02T22:28:59.397Z,11.05
2018-10-02T22:31:29.828Z,10.94
2018-10-02T22:34:00.080Z,10.96
2018-10-02T22:36:30.663Z,10.91
2018-10-02T22:39:00.969Z,10.88
2018-10-02T22:41:31.436Z,10.90
2018-10-02T22:44:01.755Z,10.89
2018-10-02T22:46:32.298Z,10.81
2018-10-02T22:49:02.756Z,10.73
2018-10-02T22:51:33.119Z,10.64
2018-10-02T22:54:03.576Z,10.56
2018-10-02T22:56:34.125Z,10.57
2018-10-02T22:59:04.544Z,10.55
2018-10-02T23:01:35.436Z,10.60
2018-10-02T23:04:06.005Z,10.60
2018-10-02T23:06:36.543Z,10.51
2018-10-02T23:09:10.858Z,10.62
2018-10-02T23:11:41.332Z,10.60
2018-10-02T23:14:11.680Z,10.55
2018-10-02T23:16:42.155Z,10.38
2018-10-02T23:19:12.561Z,10.41
2018-10-02T23:21:42.800Z,10.37
2018-10-02T23:24:13.207Z,10.28
2018-10-02T23:26:43.783Z,10.26
2018-10-02T23:29:14.185Z,10.22
2018-10-02T23:31:44.449Z,10.06
2018-10-02T23:34:14.607Z,10.12
2018-10-02T23:36:45.777Z,10.09
2018-10-02T23:39:16.196Z,9.88
2018-10-02T23:41:46.615Z,9.80
2018-10-02T23:44:16.943Z,9.69
2018-10-02T23:46:47.617Z,9.73
2018-10-02T23:49:18.121Z,9.70
2018-10-02T23:51:48.517Z,9.65
2018-10-02T23:54:18.888Z,9.57
2018-10-02T23:56:49.954Z,9.57
2018-10-02T23:59:20.467Z,9.65
